createdAt,value
2023-04-13T00:00:36.973Z,6.10
2023-04-13T00:01:40.664Z,5.27
2023-04-13T00:03:04.641Z,5.03
2023-04-13T00:04:27.803Z,5.50
2023-04-13T00:05:53.774Z,6.77
2023-04-13T00:07:02.793Z,5.13
2023-04-13T00:08:06.618Z,4.90
2023-04-13T00:09:08.918Z,5.13
2023-04-13T00:10:12.712Z,5.50
2023-04-13T00:11:15.639Z,5.70
2023-04-13T00:12:21.426Z,5.10
2023-04-13T00:13:25.076Z,5.63
2023-04-13T00:14:33.994Z,5.37
2023-04-13T00:15:43.393Z,5.27
2023-04-13T00:16:48.100Z,5.40
2023-04-13T00:17:51.216Z,5.65
2023-04-13T00:18:54.480Z,5.10
2023-04-13T00:19:57.859Z,4.90
2023-04-13T00:21:01.312Z,5.57
2023-04-13T00:22:04.081Z,5.60
2023-04-13T00:23:08.395Z,4.83
2023-04-13T00:24:11.013Z,4.70
2023-04-13T00:25:15.906Z,5.07
2023-04-13T00:26:21.966Z,5.10
2023-04-13T00:27:26.747Z,5.30
2023-04-13T00:28:30.230Z,4.87
2023-04-13T00:29:34.074Z,5.07
2023-04-13T00:30:37.886Z,4.73
2023-04-13T00:31:41.154Z,4.70
2023-04-13T00:32:44.600Z,4.40
2023-04-13T00:33:47.934Z,4.80
2023-04-13T00:34:50.562Z,4.80
2023-04-13T00:35:54.476Z,4.77
2023-04-13T00:36:57.010Z,4.93
2023-04-13T00:38:00.618Z,5.13
2023-04-13T00:39:06.415Z,4.27
2023-04-13T00:40:12.192Z,3.73
2023-04-13T00:41:14.800Z,4.27
2023-04-13T00:42:20.589Z,4.37
2023-04-13T00:43:23.037Z,4.57
2023-04-13T00:44:26.404Z,3.80
2023-04-13T00:45:29.859Z,4.73
2023-04-13T00:46:35.507Z,4.23
2023-04-13T00:47:38.599Z,5.30
2023-04-13T00:48:42.001Z,4.40
2023-04-13T00:49:45.205Z,3.80
2023-04-13T00:50:48.494Z,4.70
2023-04-13T00:51:51.229Z,4.40
2023-04-13T00:52:54.654Z,4.03
2023-04-13T00:53:59.387Z,4.30
2023-04-13T00:55:04.018Z,4.43
2023-04-13T00:56:08.118Z,4.30
2023-04-13T00:57:11.809Z,4.23
2023-04-13T00:58:15.287Z,4.40
2023-04-13T00:59:17.787Z,4.07
2023-04-13T01:00:22.294Z,4.13
2023-04-13T01:01:26.738Z,4.47
2023-04-13T01:02:31.690Z,4.93
2023-04-13T01:03:34.169Z,4.03
2023-04-13T01:04:37.980Z,4.60
2023-04-13T01:05:50.573Z,3.53
2023-04-13T01:07:02.401Z,4.23
2023-04-13T01:08:11.804Z,4.38
2023-04-13T01:09:19.371Z,3.77
2023-04-13T01:10:29.203Z,4.07
2023-04-13T01:11:39.526Z,4.20
2023-04-13T01:12:48.311Z,3.73
2023-04-13T01:13:59.259Z,3.70
2023-04-13T01:15:09.299Z,5.50
2023-04-13T01:16:19.343Z,3.67
2023-04-13T01:17:28.813Z,3.93
2023-04-13T01:18:35.532Z,3.60
2023-04-13T01:19:52.331Z,4.30
2023-04-13T01:20:55.312Z,3.23
2023-04-13T01:21:59.902Z,4.00
2023-04-13T01:23:07.585Z,3.97
2023-04-13T01:24:21.903Z,4.00
2023-04-13T01:25:39.538Z,4.00
2023-04-13T01:26:54.997Z,3.57
2023-04-13T01:28:11.858Z,3.70
2023-04-13T01:29:17.340Z,4.63
2023-04-13T01:30:22.254Z,3.47
2023-04-13T01:31:26.439Z,3.60
2023-04-13T01:32:29.315Z,3.80
2023-04-13T01:33:33.635Z,4.20
2023-04-13T01:34:36.583Z,4.10
2023-04-13T01:35:40.970Z,4.00
2023-04-13T01:36:43.943Z,3.70
2023-04-13T01:37:48.478Z,3.50
2023-04-13T01:38:51.110Z,4.10
2023-04-13T01:39:54.528Z,3.87
2023-04-13T01:40:57.400Z,3.60
2023-04-13T01:42:01.286Z,3.97
2023-04-13T01:43:03.794Z,3.63
2023-04-13T01:44:09.024Z,3.60
2023-04-13T01:45:14.956Z,3.90
2023-04-13T01:46:20.279Z,3.73
2023-04-13T01:47:26.399Z,3.30
2023-04-13T01:48:34.538Z,3.93
2023-04-13T01:49:37.521Z,3.63
2023-04-13T01:50:44.723Z,4.00
2023-04-13T01:51:50.516Z,3.67
2023-04-13T01:52:58.530Z,3.83
2023-04-13T01:54:07.952Z,3.70
2023-04-13T01:55:13.754Z,3.73
2023-04-13T01:56:19.373Z,3.53
2023-04-13T01:57:23.073Z,3.40
2023-04-13T01:58:29.117Z,3.40
2023-04-13T01:59:32.950Z,3.30
2023-04-13T02:00:37.286Z,3.27
2023-04-13T02:01:40.906Z,3.50
2023-04-13T02:02:45.406Z,3.00
2023-04-13T02:03:49.000Z,3.13
2023-04-13T02:04:53.278Z,3.47
2023-04-13T02:05:56.709Z,3.57
2023-04-13T02:07:00.542Z,3.40
2023-04-13T02:08:03.865Z,3.47
2023-04-13T02:09:07.504Z,3.57
2023-04-13T02:10:11.633Z,3.40
2023-04-13T02:11:15.896Z,3.97
2023-04-13T02:12:21.855Z,3.03
2023-04-13T02:13:25.409Z,3.20
2023-04-13T02:14:27.844Z,3.10
2023-04-13T02:15:35.852Z,3.20
2023-04-13T02:16:39.069Z,3.47
2023-04-13T02:17:45.100Z,3.10
2023-04-13T02:18:47.588Z,3.17
2023-04-13T02:19:50.879Z,3.47
2023-04-13T02:21:01.497Z,3.10
2023-04-13T02:22:04.824Z,3.27
2023-04-13T02:23:09.420Z,3.50
2023-04-13T02:24:13.498Z,2.87
2023-04-13T02:25:17.507Z,2.97
2023-04-13T02:26:20.920Z,3.20
2023-04-13T02:27:24.264Z,3.20
2023-04-13T02:28:27.786Z,3.43
2023-04-13T02:29:30.793Z,3.77
2023-04-13T02:30:35.466Z,3.17
2023-04-13T02:31:37.864Z,3.20
2023-04-13T02:32:42.778Z,3.10
2023-04-13T02:33:46.439Z,3.07
2023-04-13T02:34:50.578Z,3.00
2023-04-13T02:35:52.973Z,3.00
2023-04-13T02:36:56.920Z,3.23
2023-04-13T02:37:59.381Z,2.97
2023-04-13T02:39:02.943Z,3.70
2023-04-13T02:40:08.570Z,2.80
2023-04-13T02:41:12.607Z,3.20
2023-04-13T02:42:15.993Z,3.10
2023-04-13T02:43:19.256Z,3.00
2023-04-13T02:44:23.227Z,3.30
2023-04-13T02:45:26.938Z,3.53
2023-04-13T02:46:32.800Z,3.10
2023-04-13T02:47:36.785Z,2.83
2023-04-13T02:48:39.141Z,3.40
2023-04-13T02:49:43.676Z,3.67
2023-04-13T02:50:46.348Z,3.03
2023-04-13T02:51:50.576Z,2.73
2023-04-13T02:52:53.701Z,2.97
2023-04-13T02:53:58.102Z,3.07
2023-04-13T02:55:01.238Z,3.33
2023-04-13T02:56:05.757Z,2.93
2023-04-13T02:57:10.725Z,2.87
2023-04-13T02:58:14.756Z,3.00
2023-04-13T02:59:17.143Z,3.83
2023-04-13T03:00:25.992Z,2.87
2023-04-13T03:01:39.701Z,2.90
2023-04-13T03:02:49.610Z,3.60
2023-04-13T03:04:01.675Z,3.07
2023-04-13T03:05:15.307Z,3.40
2023-04-13T03:06:28.536Z,3.00
2023-04-13T03:07:36.781Z,2.80
2023-04-13T03:08:44.747Z,2.63
2023-04-13T03:09:56.378Z,3.03
2023-04-13T03:11:01.329Z,2.70
2023-04-13T03:12:16.531Z,3.13
2023-04-13T03:13:23.367Z,2.87
2023-04-13T03:14:33.734Z,2.60
2023-04-13T03:15:48.713Z,3.30
2023-04-13T03:17:10.429Z,2.85
2023-04-13T03:18:17.122Z,2.93
2023-04-13T03:19:27.065Z,2.80
2023-04-13T03:20:37.519Z,2.72
2023-04-13T03:21:44.759Z,3.03
2023-04-13T03:22:51.843Z,2.58
2023-04-13T03:24:01.270Z,2.90
2023-04-13T03:25:10.420Z,3.03
2023-04-13T03:26:13.385Z,2.77
2023-04-13T03:27:17.353Z,2.90
2023-04-13T03:28:19.789Z,2.80
2023-04-13T03:29:23.120Z,2.90
2023-04-13T03:30:25.594Z,2.90
2023-04-13T03:31:29.005Z,2.63
2023-04-13T03:32:33.330Z,2.43
2023-04-13T03:33:37.225Z,2.93
2023-04-13T03:34:44.251Z,2.90
2023-04-13T03:35:48.143Z,3.10
2023-04-13T03:36:53.073Z,3.23
2023-04-13T03:37:56.689Z,2.60
2023-04-13T03:39:01.016Z,3.20
2023-04-13T03:40:04.427Z,2.80
2023-04-13T03:41:08.597Z,2.63
2023-04-13T03:42:21.281Z,2.87
2023-04-13T03:43:24.638Z,2.43
2023-04-13T03:44:26.985Z,2.57
2023-04-13T03:45:30.372Z,2.70
2023-04-13T03:46:33.296Z,2.80
2023-04-13T03:47:38.994Z,2.83
2023-04-13T03:48:42.184Z,2.97
2023-04-13T03:49:45.540Z,2.70
2023-04-13T03:50:47.949Z,2.60
2023-04-13T03:51:51.181Z,2.40
2023-04-13T03:52:53.611Z,2.70
2023-04-13T03:53:57.144Z,2.53
2023-04-13T03:54:59.775Z,2.43
2023-04-13T03:56:04.299Z,3.03
2023-04-13T03:57:06.756Z,2.97
2023-04-13T03:58:10.692Z,2.50
2023-04-13T03:59:13.080Z,2.30
2023-04-13T04:00:17.392Z,3.10
2023-04-13T04:01:23.945Z,2.70
2023-04-13T04:02:28.265Z,2.53
2023-04-13T04:03:32.223Z,3.17
2023-04-13T04:04:35.837Z,2.30
2023-04-13T04:05:39.478Z,2.35
2023-04-13T04:06:42.906Z,2.50
2023-04-13T04:07:45.930Z,2.33
2023-04-13T04:08:49.958Z,2.80
2023-04-13T04:09:53.035Z,2.40
2023-04-13T04:10:56.428Z,2.47
2023-04-13T04:11:58.742Z,3.50
2023-04-13T04:13:02.416Z,2.80
2023-04-13T04:14:05.821Z,2.13
2023-04-13T04:15:09.880Z,2.70
2023-04-13T04:16:13.407Z,2.20
2023-04-13T04:17:15.780Z,2.50
2023-04-13T04:18:19.119Z,2.40
2023-04-13T04:19:22.870Z,2.80
2023-04-13T04:20:26.893Z,2.93
2023-04-13T04:21:34.336Z,2.47
2023-04-13T04:22:38.327Z,2.80
2023-04-13T04:23:40.691Z,2.50
2023-04-13T04:24:44.121Z,2.65
2023-04-13T04:25:46.954Z,2.60
2023-04-13T04:27:00.459Z,2.70
2023-04-13T04:28:02.928Z,2.92
2023-04-13T04:29:09.028Z,2.87
2023-04-13T04:30:11.789Z,2.72
2023-04-13T04:31:15.203Z,2.53
2023-04-13T04:32:18.779Z,2.40
2023-04-13T04:33:23.770Z,2.50
2023-04-13T04:34:27.915Z,3.03
2023-04-13T04:35:34.972Z,2.87
2023-04-13T04:36:41.738Z,2.23
2023-04-13T04:37:45.255Z,2.33
2023-04-13T04:38:47.743Z,2.80
2023-04-13T04:39:51.058Z,2.45
2023-04-13T04:40:57.833Z,2.93
2023-04-13T04:42:03.221Z,2.80
2023-04-13T04:43:06.825Z,2.83
2023-04-13T04:44:09.273Z,2.20
2023-04-13T04:45:14.313Z,3.10
2023-04-13T04:46:17.060Z,2.53
2023-04-13T04:47:20.653Z,2.50
2023-04-13T04:48:25.220Z,2.50
2023-04-13T04:49:29.898Z,2.50
2023-04-13T04:50:33.449Z,2.60
2023-04-13T04:51:37.832Z,2.33
2023-04-13T04:52:42.354Z,2.00
2023-04-13T04:53:45.758Z,2.10
2023-04-13T04:54:48.339Z,2.40
2023-04-13T04:55:52.161Z,2.63
2023-04-13T04:56:54.979Z,2.80
2023-04-13T04:57:59.016Z,2.80
2023-04-13T04:59:01.515Z,2.57
2023-04-13T05:00:10.346Z,2.80
2023-04-13T05:01:22.894Z,2.40
2023-04-13T05:02:25.422Z,2.30
2023-04-13T05:03:29.934Z,3.20
2023-04-13T05:04:33.706Z,2.40
2023-04-13T05:05:37.476Z,2.30
2023-04-13T05:06:41.709Z,2.30
2023-04-13T05:07:46.255Z,2.57
2023-04-13T05:08:48.594Z,2.40
2023-04-13T05:09:51.882Z,2.40
2023-04-13T05:10:54.329Z,2.80
2023-04-13T05:11:58.453Z,2.53
2023-04-13T05:13:00.870Z,2.50
2023-04-13T05:14:04.268Z,2.40
2023-04-13T05:15:08.079Z,2.10
2023-04-13T05:16:12.233Z,2.80
2023-04-13T05:17:18.245Z,2.73
2023-04-13T05:18:21.784Z,3.03
2023-04-13T05:19:24.157Z,2.33
2023-04-13T05:20:29.143Z,2.70
2023-04-13T05:21:32.953Z,2.40
2023-04-13T05:22:42.644Z,2.40
2023-04-13T05:23:45.792Z,2.60
2023-04-13T05:24:49.114Z,2.60
2023-04-13T05:25:52.924Z,2.50
2023-04-13T05:27:00.776Z,2.90
2023-04-13T05:28:03.259Z,2.50
2023-04-13T05:29:08.179Z,2.57
2023-04-13T05:30:11.141Z,2.53
2023-04-13T05:31:15.881Z,2.10
2023-04-13T05:32:19.770Z,2.17
2023-04-13T05:33:22.224Z,2.60
2023-04-13T05:34:25.761Z,2.23
2023-04-13T05:35:29.480Z,2.40
2023-04-13T05:36:34.157Z,2.70
2023-04-13T05:37:40.070Z,2.93
2023-04-13T05:38:42.999Z,2.72
2023-04-13T05:39:46.631Z,2.70
2023-04-13T05:40:49.082Z,2.37
2023-04-13T05:41:53.167Z,2.47
2023-04-13T05:42:56.833Z,2.67
2023-04-13T05:44:03.218Z,2.63
2023-04-13T05:45:09.803Z,2.40
2023-04-13T05:46:12.397Z,2.40
2023-04-13T05:47:16.191Z,2.80
2023-04-13T05:48:19.221Z,2.70
2023-04-13T05:49:22.732Z,2.33
2023-04-13T05:50:25.885Z,2.60
2023-04-13T05:51:32.890Z,2.40
2023-04-13T05:52:35.950Z,2.43
2023-04-13T05:53:39.562Z,2.60
2023-04-13T05:54:42.288Z,2.67
2023-04-13T05:55:48.223Z,2.70
2023-04-13T05:56:52.048Z,2.70
2023-04-13T05:57:54.628Z,2.60
2023-04-13T05:58:58.676Z,2.40
2023-04-13T06:00:01.498Z,2.40
2023-04-13T06:01:12.947Z,2.40
2023-04-13T06:02:15.435Z,2.55
2023-04-13T06:03:20.770Z,2.07
2023-04-13T06:04:27.756Z,2.50
2023-04-13T06:05:32.618Z,2.70
2023-04-13T06:06:36.346Z,2.10
2023-04-13T06:07:39.685Z,2.40
2023-04-13T06:08:43.069Z,2.60
2023-04-13T06:09:46.050Z,2.60
2023-04-13T06:10:49.936Z,2.63
2023-04-13T06:11:53.235Z,2.20
2023-04-13T06:12:56.815Z,2.50
2023-04-13T06:14:00.227Z,2.50
2023-04-13T06:15:04.155Z,2.20
2023-04-13T06:16:07.625Z,2.30
2023-04-13T06:17:11.205Z,2.30
2023-04-13T06:18:13.697Z,2.40
2023-04-13T06:19:17.190Z,2.23
2023-04-13T06:20:21.399Z,2.40
2023-04-13T06:21:26.556Z,2.73
2023-04-13T06:22:32.028Z,2.60
2023-04-13T06:23:34.607Z,2.50
2023-04-13T06:24:38.652Z,2.40
2023-04-13T06:25:41.210Z,2.60
2023-04-13T06:26:44.685Z,2.30
2023-04-13T06:27:50.476Z,2.13
2023-04-13T06:28:54.748Z,2.40
2023-04-13T06:29:58.235Z,2.70
2023-04-13T06:31:01.830Z,2.33
2023-04-13T06:32:06.747Z,2.40
2023-04-13T06:33:09.625Z,2.87
2023-04-13T06:34:12.934Z,2.70
2023-04-13T06:35:24.433Z,3.20
2023-04-13T06:36:27.816Z,2.60
2023-04-13T06:37:31.508Z,2.30
2023-04-13T06:38:35.838Z,2.43
2023-04-13T06:39:39.343Z,2.33
2023-04-13T06:40:42.089Z,3.50
2023-04-13T06:41:45.594Z,3.37
2023-04-13T06:42:48.099Z,3.60
2023-04-13T06:43:51.743Z,3.10
2023-04-13T06:44:54.208Z,3.50
2023-04-13T06:46:01.813Z,3.30
2023-04-13T06:47:05.866Z,3.40
2023-04-13T06:48:09.948Z,2.87
2023-04-13T06:49:13.312Z,3.23
2023-04-13T06:50:17.223Z,2.77
2023-04-13T06:51:19.603Z,2.40
2023-04-13T06:52:22.984Z,2.70
2023-04-13T06:53:27.701Z,3.37
2023-04-13T06:54:31.044Z,2.95
2023-04-13T06:55:33.445Z,3.37
2023-04-13T06:56:36.734Z,3.10
2023-04-13T06:57:40.072Z,3.10
2023-04-13T06:58:44.005Z,2.87
2023-04-13T06:59:46.345Z,3.00
2023-04-13T07:00:50.491Z,2.83
2023-04-13T07:01:53.798Z,3.17
2023-04-13T07:02:58.768Z,3.23
2023-04-13T07:04:02.624Z,2.40
2023-04-13T07:05:07.141Z,3.03
2023-04-13T07:06:09.882Z,2.83
2023-04-13T07:07:13.244Z,3.33
2023-04-13T07:08:16.573Z,3.50
2023-04-13T07:09:21.684Z,3.13
2023-04-13T07:10:24.438Z,2.90
2023-04-13T07:11:28.478Z,3.33
2023-04-13T07:12:30.966Z,2.85
2023-04-13T07:13:34.297Z,3.00
2023-04-13T07:14:37.541Z,2.95
2023-04-13T07:15:40.941Z,2.70
2023-04-13T07:16:43.883Z,2.80
2023-04-13T07:17:47.490Z,3.40
2023-04-13T07:18:49.936Z,3.20
2023-04-13T07:19:53.270Z,3.10
2023-04-13T07:20:56.566Z,3.10
2023-04-13T07:22:04.385Z,3.90
2023-04-13T07:23:08.127Z,3.20
2023-04-13T07:24:11.471Z,3.33
2023-04-13T07:25:16.221Z,3.30
2023-04-13T07:26:18.828Z,3.00
2023-04-13T07:27:22.363Z,2.97
2023-04-13T07:28:25.705Z,3.40
2023-04-13T07:29:29.107Z,3.07
2023-04-13T07:30:32.602Z,3.50
2023-04-13T07:31:35.962Z,3.00
2023-04-13T07:32:39.560Z,2.77
2023-04-13T07:33:43.126Z,3.15
2023-04-13T07:34:46.452Z,3.50
2023-04-13T07:35:54.741Z,3.00
2023-04-13T07:36:57.233Z,3.67
2023-04-13T07:38:00.596Z,3.72
2023-04-13T07:39:04.068Z,3.47
2023-04-13T07:40:08.827Z,3.20
2023-04-13T07:41:12.906Z,3.17
2023-04-13T07:42:16.258Z,3.93
2023-04-13T07:43:20.622Z,4.40
2023-04-13T07:44:24.401Z,3.57
2023-04-13T07:45:29.833Z,3.70
2023-04-13T07:46:34.038Z,3.92
2023-04-13T07:47:37.973Z,3.93
2023-04-13T07:48:43.874Z,3.70
2023-04-13T07:49:47.814Z,4.07
2023-04-13T07:50:51.678Z,4.30
2023-04-13T07:51:54.305Z,4.70
2023-04-13T07:52:57.955Z,4.80
2023-04-13T07:54:00.511Z,4.03
2023-04-13T07:55:05.211Z,4.07
2023-04-13T07:56:08.451Z,3.78
2023-04-13T07:57:13.117Z,3.70
2023-04-13T07:58:15.508Z,3.87
2023-04-13T07:59:26.894Z,4.53
2023-04-13T08:00:31.159Z,4.13
2023-04-13T08:01:35.700Z,3.70
2023-04-13T08:02:48.293Z,4.10
2023-04-13T08:03:52.618Z,4.00
2023-04-13T08:04:56.303Z,4.13
2023-04-13T08:06:00.191Z,4.13
2023-04-13T08:07:04.042Z,4.43
2023-04-13T08:08:07.425Z,3.80
2023-04-13T08:09:09.820Z,3.53
2023-04-13T08:10:13.293Z,4.37
2023-04-13T08:11:16.666Z,4.63
2023-04-13T08:12:21.420Z,3.80
2023-04-13T08:13:24.176Z,4.20
2023-04-13T08:14:27.463Z,4.23
2023-04-13T08:15:29.783Z,3.97
2023-04-13T08:16:34.645Z,4.10
2023-04-13T08:17:38.570Z,3.77
2023-04-13T08:18:42.529Z,4.10
2023-04-13T08:19:45.215Z,4.33
2023-04-13T08:20:49.173Z,4.00
2023-04-13T08:21:52.697Z,3.77
2023-04-13T08:22:55.169Z,4.20
2023-04-13T08:23:58.658Z,5.03
2023-04-13T08:25:03.074Z,4.20
2023-04-13T08:26:06.728Z,4.40
2023-04-13T08:27:10.299Z,4.00
2023-04-13T08:28:15.145Z,5.30
2023-04-13T08:29:17.538Z,4.30
2023-04-13T08:30:21.239Z,4.03
2023-04-13T08:31:23.690Z,4.37
2023-04-13T08:32:28.040Z,4.57
2023-04-13T08:33:31.890Z,4.57
2023-04-13T08:34:35.247Z,4.23
2023-04-13T08:35:39.548Z,4.57
2023-04-13T08:36:43.203Z,5.60
2023-04-13T08:37:47.368Z,4.60
2023-04-13T08:38:51.150Z,4.63
2023-04-13T08:39:59.675Z,4.40
2023-04-13T08:41:04.547Z,4.80
2023-04-13T08:42:08.153Z,5.97
2023-04-13T08:43:11.902Z,6.20
2023-04-13T08:44:15.891Z,4.43
2023-04-13T08:45:21.574Z,5.80
2023-04-13T08:46:24.670Z,5.00
2023-04-13T08:47:29.172Z,6.32
2023-04-13T08:49:05.311Z,4.50
2023-04-13T08:50:04.974Z,4.87
2023-04-13T08:51:10.344Z,4.77
2023-04-13T08:52:16.554Z,4.90
2023-04-13T08:53:26.112Z,5.00
2023-04-13T08:54:28.684Z,4.63
2023-04-13T08:55:32.070Z,5.47
2023-04-13T08:56:45.383Z,5.50
2023-04-13T08:57:51.886Z,4.80
2023-04-13T08:58:59.741Z,5.20
2023-04-13T09:00:16.671Z,4.80
2023-04-13T09:01:28.487Z,4.87
2023-04-13T09:02:36.840Z,4.70
2023-04-13T09:03:55.018Z,3.90
2023-04-13T09:05:01.448Z,4.27
2023-04-13T09:06:09.027Z,4.67
2023-04-13T09:07:26.766Z,4.17
2023-04-13T09:08:34.715Z,4.37
2023-04-13T09:09:41.005Z,4.47
2023-04-13T09:10:45.183Z,5.00
2023-04-13T09:11:51.501Z,4.57
2023-04-13T09:12:54.559Z,3.80
2023-04-13T09:13:58.140Z,5.83
2023-04-13T09:15:01.930Z,4.73
2023-04-13T09:16:07.623Z,5.50
2023-04-13T09:17:10.568Z,4.43
2023-04-13T09:18:13.975Z,4.97
2023-04-13T09:19:17.338Z,4.67
2023-04-13T09:20:22.304Z,4.30
2023-04-13T09:21:37.856Z,4.07
2023-04-13T09:22:41.320Z,4.63
2023-04-13T09:23:54.598Z,4.77
2023-04-13T09:24:57.272Z,4.60
2023-04-13T09:26:08.330Z,4.50
2023-04-13T09:27:20.370Z,4.50
2023-04-13T09:28:24.078Z,5.17
2023-04-13T09:29:27.528Z,5.50
2023-04-13T09:30:31.034Z,7.50
2023-04-13T09:31:35.960Z,8.37
2023-04-13T09:32:38.421Z,6.20
2023-04-13T09:33:46.849Z,5.30
2023-04-13T09:35:01.588Z,5.50
2023-04-13T09:36:11.575Z,5.73
2023-04-13T09:37:15.015Z,6.30
2023-04-13T09:38:17.542Z,5.27
2023-04-13T09:39:29.507Z,4.97
2023-04-13T09:42:41.575Z,5.63
2023-04-13T09:43:45.480Z,5.43
2023-04-13T09:44:57.242Z,5.33
2023-04-13T09:46:01.523Z,5.20
2023-04-13T09:47:07.814Z,5.40
2023-04-13T09:48:19.190Z,5.00
2023-04-13T09:49:22.163Z,5.23
2023-04-13T09:50:38.202Z,4.47
2023-04-13T09:51:43.303Z,5.00
2023-04-13T09:52:46.038Z,5.10
2023-04-13T09:53:50.598Z,5.93
2023-04-13T09:54:55.045Z,4.87
2023-04-13T09:56:05.878Z,5.33
2023-04-13T09:57:08.234Z,6.03
2023-04-13T09:58:13.141Z,5.50
2023-04-13T09:59:17.393Z,5.43
2023-04-13T10:00:21.052Z,5.60
2023-04-13T10:01:29.415Z,5.10
2023-04-13T10:02:43.266Z,5.90
2023-04-13T10:03:47.099Z,6.50
2023-04-13T10:04:49.994Z,5.90
2023-04-13T10:05:58.894Z,6.80
2023-04-13T10:07:05.090Z,7.20
2023-04-13T10:08:07.583Z,6.43
2023-04-13T10:53:31.163Z,4.51
2023-04-13T10:54:36.324Z,4.50
2023-04-13T10:55:39.530Z,4.45
2023-04-13T10:56:45.117Z,4.10
2023-04-13T10:57:47.508Z,4.20
2023-04-13T10:58:54.633Z,3.63
2023-04-13T10:59:59.713Z,4.40
2023-04-13T11:01:11.277Z,3.97
2023-04-13T11:02:16.718Z,3.80
2023-04-13T11:03:20.297Z,4.32
2023-04-13T11:04:24.141Z,4.35
2023-04-13T11:05:28.112Z,4.15
2023-04-13T11:06:37.132Z,4.30
2023-04-13T11:07:39.485Z,3.38
2023-04-13T11:08:48.570Z,4.10
2023-04-13T11:09:52.244Z,3.58
2023-04-13T11:10:57.135Z,3.70
2023-04-13T11:11:59.751Z,4.05
2023-04-13T11:13:03.186Z,4.38
2023-04-13T11:14:08.034Z,3.45
2023-04-13T11:15:12.727Z,3.92
2023-04-13T11:16:16.077Z,3.70
2023-04-13T11:17:20.592Z,3.77
2023-04-13T11:18:27.606Z,3.13
2023-04-13T11:19:30.137Z,4.40
2023-04-13T11:20:34.248Z,3.90
2023-04-13T11:21:36.787Z,3.90
2023-04-13T11:23:55.486Z,3.65
2023-04-13T11:25:07.862Z,4.28
2023-04-13T11:26:11.245Z,3.80
2023-04-13T11:27:18.926Z,3.95
2023-04-13T11:28:24.176Z,3.80
2023-04-13T11:29:27.706Z,3.95
2023-04-13T11:30:32.702Z,4.20
2023-04-13T11:31:37.532Z,3.03
2023-04-13T11:32:43.056Z,3.70
2023-04-13T11:33:50.039Z,3.75
2023-04-13T11:34:53.094Z,3.78
2023-04-13T11:35:58.869Z,4.03
2023-04-13T11:37:03.351Z,4.35
2023-04-13T11:38:17.394Z,4.82
2023-04-13T11:39:23.312Z,5.83
2023-04-13T11:40:27.943Z,5.60
2023-04-13T11:41:32.928Z,5.00
2023-04-13T11:42:41.106Z,5.40
2023-04-13T11:43:47.153Z,5.15
2023-04-13T11:44:51.330Z,5.87
2023-04-13T11:45:55.816Z,4.27
2023-04-13T11:46:58.646Z,4.93
2023-04-13T11:48:06.261Z,5.73
2023-04-13T11:49:09.200Z,5.65
2023-04-13T11:50:15.591Z,4.47
2023-04-13T11:51:20.089Z,4.73
2023-04-13T11:52:22.856Z,5.37
2023-04-13T11:53:26.437Z,5.32
2023-04-13T11:54:31.090Z,5.53
2023-04-13T11:55:52.032Z,5.45
2023-04-13T11:56:57.746Z,4.72
2023-04-13T11:58:07.767Z,4.60
2023-04-13T11:59:11.388Z,5.13
2023-04-13T12:00:18.583Z,4.90
2023-04-13T12:01:27.072Z,5.30
2023-04-13T12:02:33.779Z,4.65
2023-04-13T12:03:53.609Z,5.87
2023-04-13T12:05:04.530Z,5.07
2023-04-13T12:06:07.895Z,5.60
2023-04-13T12:07:14.871Z,5.33
2023-04-13T12:08:23.323Z,5.43
2023-04-13T12:09:54.805Z,5.93
2023-04-13T12:11:25.034Z,5.33
2023-04-13T12:13:52.368Z,4.83
2023-04-13T12:15:17.026Z,4.70
2023-04-13T12:17:40.979Z,3.40
2023-04-13T12:18:50.058Z,5.07
2023-04-13T12:19:57.567Z,4.00
2023-04-13T12:21:02.846Z,4.30
2023-04-13T12:22:07.088Z,3.90
2023-04-13T12:23:22.795Z,4.38
2023-04-13T12:24:34.104Z,4.43
2023-04-13T12:25:36.938Z,3.77
2023-04-13T12:27:17.139Z,4.25
2023-04-13T12:28:05.508Z,4.00
2023-04-13T12:29:08.931Z,3.20
2023-04-13T12:30:13.520Z,4.03
2023-04-13T12:31:17.594Z,4.07
2023-04-13T12:32:21.000Z,4.07
2023-04-13T12:33:24.325Z,4.32
2023-04-13T12:34:26.831Z,3.77
2023-04-13T12:35:30.258Z,3.93
2023-04-13T12:36:35.751Z,4.27
2023-04-13T12:37:43.018Z,3.43
2023-04-13T12:38:45.988Z,3.93
2023-04-13T12:39:49.400Z,3.90
2023-04-13T12:40:57.554Z,3.47
2023-04-13T12:42:02.610Z,4.33
2023-04-13T12:43:05.129Z,3.30
2023-04-13T12:44:09.052Z,3.80
2023-04-13T12:45:12.977Z,4.57
2023-04-13T12:46:15.733Z,3.40
2023-04-13T12:47:19.743Z,3.50
2023-04-13T12:48:22.904Z,3.47
2023-04-13T12:49:26.294Z,3.93
2023-04-13T12:50:29.462Z,3.50
2023-04-13T12:51:34.544Z,2.90
2023-04-13T12:52:40.997Z,3.40
2023-04-13T12:53:44.425Z,3.92
2023-04-13T12:54:46.980Z,4.93
2023-04-13T12:55:50.561Z,3.80
2023-04-13T12:56:53.986Z,3.60
2023-04-13T12:57:59.693Z,3.40
2023-04-13T12:59:02.572Z,3.73
2023-04-13T13:00:11.282Z,3.20
2023-04-13T13:01:17.719Z,3.70
2023-04-13T13:02:22.949Z,3.70
2023-04-13T13:03:27.831Z,2.80
2023-04-13T13:04:31.424Z,2.90
2023-04-13T13:05:34.086Z,3.20
2023-04-13T13:06:38.217Z,3.77
2023-04-13T13:07:40.930Z,2.90
2023-04-13T13:08:44.681Z,3.05
2023-04-13T13:09:48.474Z,4.53
2023-04-13T13:10:51.160Z,3.73
2023-04-13T13:11:54.505Z,3.77
2023-04-13T13:12:58.239Z,3.40
2023-04-13T13:14:02.424Z,2.97
2023-04-13T13:15:10.562Z,3.17
2023-04-13T13:16:14.169Z,3.47
2023-04-13T13:17:21.545Z,3.40
2023-04-13T13:18:38.447Z,3.47
2023-04-13T13:19:50.040Z,3.33
2023-04-13T13:20:56.948Z,2.77
2023-04-13T13:22:04.076Z,3.40
2023-04-13T13:23:12.948Z,3.20
2023-04-13T13:24:21.076Z,3.10
2023-04-13T13:25:28.468Z,3.40
2023-04-13T13:26:58.673Z,2.80
2023-04-13T13:28:14.987Z,3.50
2023-04-13T13:29:25.485Z,3.20
2023-04-13T13:30:32.381Z,2.90
2023-04-13T13:31:39.827Z,2.70
2023-04-13T13:32:45.422Z,3.00
2023-04-13T13:33:49.700Z,3.53
2023-04-13T13:34:58.765Z,2.77
2023-04-13T13:37:11.355Z,2.70
2023-04-13T13:38:18.979Z,2.63
2023-04-13T13:39:24.958Z,2.70
2023-04-13T13:40:32.469Z,3.20
2023-04-13T13:41:39.762Z,2.70
2023-04-13T13:42:51.914Z,2.88
2023-04-13T13:44:00.534Z,3.15
2023-04-13T13:45:06.563Z,2.40
2023-04-13T13:46:13.079Z,2.20
2023-04-13T13:47:18.608Z,2.37
2023-04-13T13:48:22.600Z,2.33
2023-04-13T13:49:28.843Z,2.90
2023-04-13T13:50:32.895Z,2.27
2023-04-13T13:51:41.403Z,3.20
2023-04-13T13:52:55.640Z,2.50
2023-04-13T13:54:08.412Z,2.30
2023-04-13T13:55:14.223Z,2.20
2023-04-13T13:56:21.151Z,2.20
2023-04-13T13:57:26.950Z,2.53
2023-04-13T13:58:32.954Z,2.07
2023-04-13T13:59:39.767Z,2.08
2023-04-13T14:00:46.829Z,2.97
2023-04-13T14:01:51.878Z,2.40
2023-04-13T14:02:58.674Z,2.10
2023-04-13T14:04:04.341Z,2.10
2023-04-13T14:05:14.957Z,2.27
2023-04-13T14:06:23.320Z,2.53
2023-04-13T14:07:30.800Z,2.53
2023-04-13T14:08:37.796Z,2.27
2023-04-13T14:09:43.784Z,3.93
2023-04-13T14:10:51.691Z,2.67
2023-04-13T14:11:58.689Z,2.77
2023-04-13T14:13:04.084Z,2.80
2023-04-13T14:14:21.222Z,2.67
2023-04-13T14:15:33.291Z,2.80
2023-04-13T14:16:39.784Z,2.43
2023-04-13T14:17:50.445Z,2.73
2023-04-13T14:19:08.454Z,1.90
2023-04-13T14:20:15.013Z,2.60
2023-04-13T14:21:24.120Z,2.67
2023-04-13T14:22:31.461Z,2.13
2023-04-13T14:23:41.859Z,2.60
2023-04-13T14:24:53.048Z,2.40
2023-04-13T14:26:00.685Z,2.17
2023-04-13T14:27:16.944Z,2.43
2023-04-13T14:28:25.594Z,2.30
2023-04-13T14:29:31.312Z,2.40
2023-04-13T14:30:39.824Z,2.40
2023-04-13T14:31:47.091Z,2.83
2023-04-13T14:32:52.957Z,2.60
2023-04-13T14:34:00.533Z,2.80
2023-04-13T14:35:08.205Z,2.50
2023-04-13T14:36:15.548Z,2.60
2023-04-13T14:37:21.409Z,2.73
2023-04-13T14:38:28.625Z,2.70
2023-04-13T14:39:34.371Z,3.90
2023-04-13T14:40:41.079Z,3.47
2023-04-13T14:41:49.148Z,2.90
2023-04-13T14:42:56.625Z,3.80
2023-04-13T14:44:01.060Z,3.25
2023-04-13T14:45:06.397Z,3.10
2023-04-13T14:46:14.179Z,2.90
2023-04-13T14:47:19.107Z,3.60
2023-04-13T14:48:24.489Z,3.37
2023-04-13T14:49:31.005Z,4.60
2023-04-13T14:50:39.721Z,4.78
2023-04-13T14:51:44.015Z,3.23
2023-04-13T14:52:49.014Z,3.70
2023-04-13T14:53:57.084Z,3.50
2023-04-13T14:55:01.932Z,3.20
2023-04-13T14:56:07.150Z,3.70
2023-04-13T14:57:12.687Z,4.47
2023-04-13T14:58:18.501Z,4.30
2023-04-13T14:59:24.860Z,3.27
2023-04-13T15:00:40.322Z,3.27
2023-04-13T15:01:48.619Z,4.53
2023-04-13T15:02:55.425Z,7.23
2023-04-13T15:04:02.709Z,4.13
2023-04-13T15:05:09.134Z,4.20
2023-04-13T15:06:16.147Z,3.77
2023-04-13T15:07:22.204Z,4.10
2023-04-13T15:08:26.919Z,4.23
2023-04-13T15:09:33.312Z,4.43
2023-04-13T15:10:39.034Z,4.23
2023-04-13T15:11:47.378Z,5.40
2023-04-13T15:12:51.371Z,5.33
2023-04-13T15:13:57.543Z,4.60
2023-04-13T15:15:02.643Z,4.13
2023-04-13T15:16:08.796Z,4.13
2023-04-13T15:17:15.615Z,4.13
2023-04-13T15:18:20.597Z,5.20
2023-04-13T15:19:23.444Z,4.70
2023-04-13T15:20:29.023Z,4.70
2023-04-13T15:21:35.240Z,4.20
2023-04-13T15:22:43.093Z,5.07
2023-04-13T15:23:49.135Z,4.00
2023-04-13T15:24:53.865Z,4.77